Time;durP1;ratioP1;P1;durP2;ratioP2;P2;SDS_P1;SDS_P2;PMS_P1;PMS_P2;Temp;Humidity;BMP_temperature;BMP_pressure;BME280_temperature;BME280_humidity;BME280_pressure;Samples;Min_cycle;Max_cycle;Signal;HPM_P1;HPM_P2
2021/06/16 00:00:20;;;;;;;6.22;2.65;;;13.50;95.20;;;;;;5026192;28;20063;-95
2021/06/16 00:02:46;;;;;;;4.65;2.10;;;13.50;95.50;;;;;;5024454;28;20117;-96
2021/06/16 00:05:19;;;;;;;5.30;2.30;;;13.50;95.80;;;;;;5025468;28;20064;-94
2021/06/16 00:07:45;;;;;;;3.22;2.00;;;13.50;96.10;;;;;;5007825;28;20048;-95
2021/06/16 00:10:12;;;;;;;8.65;2.58;;;13.50;96.30;;;;;;5026723;28;20457;-96
2021/06/16 00:12:39;;;;;;;8.40;2.72;;;13.40;96.50;;;;;;5026801;28;20033;-96
2021/06/16 00:15:19;;;;;;;11.43;2.83;;;13.40;96.80;;;;;;5026481;28;20018;-96
2021/06/16 00:17:46;;;;;;;5.28;2.53;;;13.30;97.20;;;;;;5029495;28;20026;-96
2021/06/16 00:20:49;;;;;;;12.27;3.30;;;13.20;97.50;;;;;;5036905;28;20376;-96
2021/06/16 00:23:42;;;;;;;6.22;2.80;;;13.20;98.10;;;;;;5041625;28;20057;-96
2021/06/16 00:26:12;;;;;;;8.32;2.80;;;13.10;98.50;;;;;;5029773;28;20060;-95
2021/06/16 00:28:40;;;;;;;4.80;2.30;;;13.10;98.80;;;;;;5039819;28;20025;-96
2021/06/16 00:31:08;;;;;;;6.15;2.95;;;13.20;99.00;;;;;;5046849;28;20261;-96
2021/06/16 00:33:38;;;;;;;7.13;3.10;;;13.10;99.20;;;;;;5028365;28;20026;-95
2021/06/16 00:36:04;;;;;;;5.53;2.60;;;13.10;99.50;;;;;;5028208;28;20026;-95
2021/06/16 00:38:30;;;;;;;10.13;3.00;;;13.10;99.80;;;;;;5010084;28;20030;-95
2021/06/16 00:40:57;;;;;;;4.97;2.80;;;13.10;99.90;;;;;;5025242;28;20064;-95
2021/06/16 00:43:23;;;;;;;8.35;2.80;;;13.10;99.90;;;;;;5025217;28;20031;-96
2021/06/16 00:45:49;;;;;;;7.57;2.70;;;13.10;99.90;;;;;;5026650;28;20053;-94
2021/06/16 00:48:18;;;;;;;11.30;3.38;;;13.10;99.90;;;;;;5026818;28;20435;-95
2021/06/16 00:50:45;;;;;;;9.90;2.88;;;13.20;99.90;;;;;;5029799;28;20041;-96
2021/06/16 00:53:12;;;;;;;5.80;2.88;;;13.10;99.90;;;;;;5032524;28;20029;-94
2021/06/16 00:55:39;;;;;;;6.90;3.08;;;13.10;99.90;;;;;;5047584;28;20025;-95
2021/06/16 00:58:14;;;;;;;4.28;2.60;;;13.00;99.90;;;;;;5028597;28;20033;-95
2021/06/16 01:01:00;;;;;;;7.63;2.63;;;13.00;99.90;;;;;;5036318;28;20033;-96
2021/06/16 01:03:43;;;;;;;8.55;2.92;;;13.00;99.90;;;;;;5034408;28;20025;-96
2021/06/16 01:06:20;;;;;;;6.22;2.95;;;13.00;99.90;;;;;;5026106;28;20036;-96
2021/06/16 01:09:22;;;;;;;9.23;3.10;;;13.00;99.90;;;;;;5032538;28;20037;-96
2021/06/16 01:12:19;;;;;;;5.20;3.22;;;13.00;99.90;;;;;;5050550;28;20021;-96
2021/06/16 01:14:54;;;;;;;8.40;3.17;;;13.00;99.90;;;;;;5040746;28;20044;-96
2021/06/16 01:17:30;;;;;;;6.97;2.90;;;13.00;99.90;;;;;;5028030;28;20085;-95
2021/06/16 01:20:09;;;;;;;6.25;2.72;;;13.00;99.90;;;;;;5026568;28;20097;-96
2021/06/16 01:23:00;;;;;;;8.60;3.05;;;13.00;99.90;;;;;;5007446;28;20042;-96
2021/06/16 01:25:52;;;;;;;4.97;2.97;;;12.90;99.90;;;;;;5007448;28;20050;-96
2021/06/16 01:28:22;;;;;;;6.60;2.58;;;12.90;99.90;;;;;;5004554;28;20033;-95
2021/06/16 01:30:49;;;;;;;6.22;2.70;;;12.90;99.90;;;;;;5006501;28;20106;-96
2021/06/16 01:33:19;;;;;;;9.82;2.92;;;12.80;99.90;;;;;;5006238;28;20031;-96
2021/06/16 01:35:47;;;;;;;7.90;2.80;;;12.80;99.90;;;;;;4987596;28;20034;-96
2021/06/16 01:38:16;;;;;;;8.68;3.10;;;12.80;99.90;;;;;;5005825;28;20086;-94
2021/06/16 01:40:46;;;;;;;9.32;3.30;;;12.80;99.90;;;;;;5014937;28;20021;-94
2021/06/16 01:43:12;;;;;;;5.32;2.42;;;12.80;99.90;;;;;;5009995;28;20496;-95
2021/06/16 01:45:39;;;;;;;9.75;2.97;;;12.80;99.90;;;;;;5001908;28;20042;-96
2021/06/16 01:48:08;;;;;;;3.65;2.50;;;12.80;99.90;;;;;;5000170;28;20062;-95
2021/06/16 01:50:37;;;;;;;6.30;2.58;;;12.80;99.90;;;;;;5005488;28;20030;-95
2021/06/16 01:53:04;;;;;;;4.63;2.80;;;12.80;99.90;;;;;;4989414;28;20034;-95
2021/06/16 01:55:31;;;;;;;7.95;2.53;;;12.80;99.90;;;;;;5003342;28;20117;-95
2021/06/16 01:58:03;;;;;;;6.75;3.13;;;12.80;99.90;;;;;;5006332;28;20041;-95
2021/06/16 02:00:32;;;;;;;4.90;2.83;;;12.90;99.90;;;;;;5008258;28;20117;-96
2021/06/16 02:03:00;;;;;;;12.23;3.15;;;12.90;99.90;;;;;;4998495;28;20026;-95
2021/06/16 02:05:26;;;;;;;4.60;2.45;;;12.90;99.90;;;;;;4998783;28;20030;-96
2021/06/16 02:08:15;;;;;;;3.42;2.65;;;12.90;99.90;;;;;;4999173;28;20022;-95
2021/06/16 02:10:46;;;;;;;8.77;2.63;;;12.90;99.90;;;;;;5000443;28;20030;-94
2021/06/16 02:13:14;;;;;;;7.25;2.72;;;12.90;99.90;;;;;;4988020;28;20041;-95
2021/06/16 02:15:52;;;;;;;4.82;2.25;;;12.90;99.90;;;;;;5005214;28;20031;-96
2021/06/16 02:18:24;;;;;;;4.57;2.80;;;13.00;99.90;;;;;;5007689;28;20034;-95
2021/06/16 02:20:50;;;;;;;4.70;2.13;;;12.90;99.90;;;;;;5018092;28;20050;-95
2021/06/16 02:23:16;;;;;;;7.05;2.40;;;12.90;99.90;;;;;;5030544;28;20026;-95
2021/06/16 02:25:44;;;;;;;11.80;2.78;;;12.90;99.90;;;;;;5027987;28;20471;-94
2021/06/16 02:28:12;;;;;;;7.07;2.92;;;12.90;99.90;;;;;;5027654;28;20117;-96
2021/06/16 02:30:38;;;;;;;4.82;2.47;;;12.90;99.90;;;;;;5037464;28;20022;-95
2021/06/16 02:33:05;;;;;;;4.88;2.70;;;12.80;99.90;;;;;;5036538;28;20057;-94
2021/06/16 02:35:32;;;;;;;7.50;3.35;;;12.80;99.90;;;;;;5024662;28;20026;-96
2021/06/16 02:38:05;;;;;;;8.55;2.67;;;12.80;99.90;;;;;;5023891;28;20018;-95
2021/06/16 02:40:34;;;;;;;7.32;2.70;;;12.80;99.90;;;;;;5023303;28;20038;-95
2021/06/16 02:43:00;;;;;;;7.40;2.67;;;12.80;99.90;;;;;;5023210;28;20026;-96
2021/06/16 02:45:27;;;;;;;3.97;2.70;;;12.80;99.90;;;;;;5022137;28;20034;-96
2021/06/16 02:47:56;;;;;;;6.95;3.03;;;12.90;99.90;;;;;;5022687;28;20034;-95
2021/06/16 02:50:26;;;;;;;7.88;2.95;;;12.80;99.90;;;;;;5022994;28;20026;-94
2021/06/16 02:52:55;;;;;;;8.40;3.30;;;12.80;99.90;;;;;;5023052;28;20026;-94
2021/06/16 02:55:24;;;;;;;4.32;2.42;;;12.80;99.90;;;;;;5021907;28;20037;-95
2021/06/16 02:57:51;;;;;;;6.97;2.58;;;12.80;99.90;;;;;;5020805;28;20041;-95
2021/06/16 03:00:19;;;;;;;6.82;2.90;;;12.80;99.90;;;;;;5023411;28;20057;-95
2021/06/16 03:02:49;;;;;;;6.05;2.50;;;12.80;99.90;;;;;;5021726;28;20045;-94
2021/06/16 03:05:21;;;;;;;6.85;2.65;;;12.80;99.90;;;;;;5022532;28;20096;-95
2021/06/16 03:07:50;;;;;;;10.13;3.10;;;12.80;99.90;;;;;;5025194;28;20491;-94
2021/06/16 03:10:21;;;;;;;10.10;3.17;;;12.90;99.90;;;;;;5022918;28;20026;-95
2021/06/16 03:12:48;;;;;;;;;;;12.90;99.90;;;;;;5023153;28;20034;-95
2021/06/16 03:15:14;;;;;;;6.38;2.60;;;12.90;99.90;;;;;;5020508;28;20048;-95
2021/06/16 03:17:44;;;;;;;14.68;2.95;;;12.90;99.90;;;;;;5021262;28;20029;-96
2021/06/16 03:20:11;;;;;;;5.70;2.35;;;12.90;99.90;;;;;;5021706;28;20514;-96
2021/06/16 03:22:38;;;;;;;6.15;2.58;;;12.80;99.90;;;;;;5025939;28;20068;-96
2021/06/16 03:25:04;;;;;;;9.23;2.67;;;12.80;99.90;;;;;;5026897;28;20021;-95
2021/06/16 03:27:32;;;;;;;5.85;2.53;;;12.80;99.90;;;;;;5027354;28;20175;-96
2021/06/16 03:29:59;;;;;;;7.65;2.45;;;12.80;99.90;;;;;;5052483;28;20022;-94
2021/06/16 03:32:29;;;;;;;5.03;1.95;;;12.80;99.90;;;;;;5029181;28;20029;-95
2021/06/16 03:34:55;;;;;;;6.70;2.72;;;12.80;99.90;;;;;;5024895;28;20031;-95
2021/06/16 03:37:24;;;;;;;4.85;2.25;;;12.80;99.90;;;;;;5024794;28;20057;-95
2021/06/16 03:39:52;;;;;;;11.80;3.50;;;12.80;99.90;;;;;;5023912;28;20372;-95
2021/06/16 03:42:19;;;;;;;5.28;2.25;;;12.80;99.90;;;;;;5007962;28;20033;-94
2021/06/16 03:44:45;;;;;;;4.28;2.08;;;12.80;99.90;;;;;;5024576;28;20025;-96
2021/06/16 03:47:12;;;;;;;8.45;2.47;;;12.80;99.90;;;;;;5011184;28;20033;-95
2021/06/16 03:49:42;;;;;;;7.25;2.35;;;12.80;99.90;;;;;;5023220;28;20006;-93
2021/06/16 03:52:11;;;;;;;4.97;2.20;;;12.70;99.90;;;;;;5024917;28;20171;-95
2021/06/16 03:54:39;;;;;;;6.63;2.67;;;12.70;99.90;;;;;;5024275;28;20045;-95
2021/06/16 03:57:07;;;;;;;5.93;2.33;;;12.70;99.90;;;;;;5008111;28;20124;-94
2021/06/16 03:59:36;;;;;;;7.50;2.00;;;12.70;99.90;;;;;;5024850;28;20025;-94
2021/06/16 04:02:03;;;;;;;7.30;2.10;;;12.70;99.90;;;;;;5024841;28;20037;-93
2021/06/16 04:04:32;;;;;;;11.88;2.22;;;12.70;99.90;;;;;;5024208;28;20025;-94
2021/06/16 04:06:58;;;;;;;11.93;2.30;;;12.70;99.90;;;;;;5024079;28;20031;-95
2021/06/16 04:09:25;;;;;;;4.60;2.33;;;12.70;99.90;;;;;;5024433;28;20032;-96
2021/06/16 04:11:52;;;;;;;5.40;2.20;;;12.70;99.90;;;;;;5024281;28;20033;-96
2021/06/16 04:14:20;;;;;;;7.05;2.40;;;12.60;99.90;;;;;;5025070;28;20053;-94
2021/06/16 04:16:48;;;;;;;14.38;2.67;;;12.60;99.90;;;;;;5041078;28;20042;-94
2021/06/16 04:19:14;;;;;;;6.07;2.45;;;12.70;99.90;;;;;;5025201;28;20025;-95
2021/06/16 04:21:40;;;;;;;7.05;2.22;;;12.70;99.90;;;;;;5021951;28;20116;-94
2021/06/16 04:24:08;;;;;;;5.25;2.00;;;12.70;99.90;;;;;;5020647;28;20030;-94
2021/06/16 04:26:33;;;;;;;9.43;2.78;;;12.70;99.90;;;;;;5021250;28;20022;-95
2021/06/16 04:29:03;;;;;;;10.32;2.60;;;12.70;99.90;;;;;;5022040;28;20030;-96
2021/06/16 04:31:30;;;;;;;6.05;2.00;;;12.80;99.90;;;;;;5021453;28;20417;-95
2021/06/16 04:33:58;;;;;;;6.35;2.03;;;12.80;99.90;;;;;;5020981;28;20033;-94
2021/06/16 04:36:23;;;;;;;5.82;2.55;;;12.80;99.90;;;;;;5021187;28;20038;-95
2021/06/16 04:38:49;;;;;;;9.57;2.47;;;12.80;99.90;;;;;;5020050;28;20029;-95
2021/06/16 04:41:15;;;;;;;4.88;2.05;;;12.90;99.90;;;;;;5020074;28;20061;-95
2021/06/16 04:43:41;;;;;;;7.18;2.03;;;12.90;99.90;;;;;;5020617;28;20422;-96
2021/06/16 04:46:07;;;;;;;5.57;2.40;;;12.90;99.90;;;;;;5021807;28;20097;-95
2021/06/16 04:48:33;;;;;;;4.22;2.53;;;12.90;99.90;;;;;;5022529;28;20049;-96
2021/06/16 04:50:59;;;;;;;7.45;2.20;;;12.90;99.90;;;;;;5025360;28;20053;-95
2021/06/16 04:53:29;;;;;;;8.00;2.15;;;13.00;99.90;;;;;;5025687;28;20064;-95
2021/06/16 04:55:56;;;;;;;4.37;2.10;;;13.00;99.90;;;;;;5025611;28;20026;-95
2021/06/16 04:58:22;;;;;;;4.60;2.10;;;13.00;99.90;;;;;;5025170;28;20028;-95
2021/06/16 05:00:49;;;;;;;6.80;2.35;;;13.00;99.90;;;;;;5024861;28;20125;-95
2021/06/16 05:03:15;;;;;;;4.97;2.10;;;13.00;99.90;;;;;;5025905;28;20022;-96
2021/06/16 05:05:44;;;;;;;4.97;2.10;;;13.10;99.90;;;;;;5019352;28;20025;-95
2021/06/16 05:08:11;;;;;;;4.95;2.25;;;13.10;99.90;;;;;;5040262;28;20037;-95
2021/06/16 05:10:37;;;;;;;4.28;1.83;;;13.10;99.90;;;;;;5036662;28;20100;-96
2021/06/16 05:13:07;;;;;;;4.50;2.40;;;13.10;99.90;;;;;;5039337;28;20025;-96
2021/06/16 05:15:33;;;;;;;10.73;2.10;;;13.10;99.90;;;;;;5035352;28;20117;-96
2021/06/16 05:18:08;;;;;;;4.78;2.17;;;13.10;99.90;;;;;;5031399;28;20030;-95
2021/06/16 05:20:35;;;;;;;5.22;2.17;;;13.10;99.90;;;;;;5043249;28;20045;-95
2021/06/16 05:23:03;;;;;;;7.22;1.98;;;13.20;99.90;;;;;;5036393;28;20034;-96
2021/06/16 05:25:32;;;;;;;7.72;2.33;;;13.20;99.90;;;;;;5032978;28;20048;-96
2021/06/16 05:27:58;;;;;;;5.88;2.22;;;13.30;99.90;;;;;;5038597;28;20034;-96
2021/06/16 05:30:24;;;;;;;8.88;2.67;;;13.40;99.90;;;;;;5043578;28;20052;-96
2021/06/16 05:32:52;;;;;;;10.07;2.50;;;13.40;99.90;;;;;;5039788;28;20507;-96
2021/06/16 05:35:19;;;;;;;10.32;2.85;;;13.50;99.90;;;;;;5031223;28;20076;-96
2021/06/16 05:37:47;;;;;;;4.05;2.20;;;13.60;99.90;;;;;;5032181;28;20102;-96
2021/06/16 05:40:16;;;;;;;8.80;2.60;;;13.60;99.90;;;;;;5039068;28;20029;-96
2021/06/16 05:42:43;;;;;;;7.57;2.47;;;13.70;99.90;;;;;;5035564;28;20087;-96
2021/06/16 05:45:10;;;;;;;7.90;2.30;;;13.60;99.90;;;;;;5028707;28;20029;-96
2021/06/16 05:47:36;;;;;;;8.55;2.13;;;13.70;99.90;;;;;;5033433;28;20037;-96
2021/06/16 05:50:05;;;;;;;7.65;2.55;;;13.70;99.90;;;;;;5030002;28;20446;-95
2021/06/16 05:52:32;;;;;;;9.75;2.88;;;13.80;99.90;;;;;;5025930;28;20022;-96
2021/06/16 05:54:58;;;;;;;8.40;2.78;;;13.80;99.90;;;;;;5027390;28;20063;-96
2021/06/16 05:57:24;;;;;;;5.80;2.60;;;13.90;99.90;;;;;;5004965;28;20029;-95
2021/06/16 05:59:50;;;;;;;7.60;2.38;;;14.00;99.90;;;;;;5024729;28;20021;-96
2021/06/16 06:02:15;;;;;;;7.80;2.92;;;13.90;99.90;;;;;;5014373;28;20129;-95
2021/06/16 06:04:41;;;;;;;9.73;2.58;;;13.90;99.90;;;;;;5028392;28;20470;-95
2021/06/16 06:07:10;;;;;;;9.20;2.65;;;14.00;99.90;;;;;;5028094;28;20037;-95
2021/06/16 06:09:38;;;;;;;8.82;2.47;;;14.10;99.90;;;;;;5033625;28;20071;-96
2021/06/16 06:12:05;;;;;;;5.90;2.17;;;14.20;99.90;;;;;;5030088;28;20033;-96
2021/06/16 06:14:34;;;;;;;9.43;2.00;;;14.20;99.90;;;;;;5034844;28;20060;-96
2021/06/16 06:17:01;;;;;;;5.90;2.47;;;14.30;99.90;;;;;;5030987;28;20018;-94
2021/06/16 06:19:28;;;;;;;6.78;2.30;;;14.40;99.90;;;;;;5041965;28;20026;-95
2021/06/16 06:21:54;;;;;;;7.22;2.45;;;14.50;99.90;;;;;;5026830;28;20049;-95
2021/06/16 06:24:23;;;;;;;9.80;2.83;;;14.70;99.90;;;;;;5043159;28;20029;-95
2021/06/16 06:26:50;;;;;;;7.97;2.17;;;14.80;99.90;;;;;;5034185;28;20022;-96
2021/06/16 06:29:17;;;;;;;6.63;2.10;;;15.00;99.90;;;;;;5029339;28;20061;-94
2021/06/16 06:31:44;;;;;;;8.32;2.67;;;15.10;99.90;;;;;;5027561;28;20025;-93
2021/06/16 06:34:18;;;;;;;7.50;2.47;;;15.30;99.90;;;;;;5009626;28;20050;-96
2021/06/16 06:36:45;;;;;;;10.65;2.60;;;15.40;99.90;;;;;;5036287;28;20022;-95
2021/06/16 06:39:12;;;;;;;6.45;2.45;;;15.60;99.90;;;;;;5037726;28;20112;-95
2021/06/16 06:41:40;;;;;;;10.77;2.10;;;15.70;99.90;;;;;;5006785;28;20054;-96
2021/06/16 06:44:11;;;;;;;6.03;1.80;;;15.90;99.90;;;;;;5029251;28;20083;-96
2021/06/16 06:46:39;;;;;;;10.93;1.90;;;16.00;99.90;;;;;;5028531;28;20030;-95
2021/06/16 06:49:05;;;;;;;9.48;2.60;;;16.20;99.90;;;;;;5028190;28;20026;-96
2021/06/16 06:51:31;;;;;;;7.22;2.53;;;16.20;99.90;;;;;;5033076;28;20394;-95
2021/06/16 06:53:57;;;;;;;5.30;1.98;;;16.30;99.90;;;;;;5028687;28;20034;-94
2021/06/16 06:56:22;;;;;;;6.10;1.98;;;16.50;99.90;;;;;;5022898;28;20021;-94
2021/06/16 06:58:51;;;;;;;6.95;1.90;;;16.60;99.90;;;;;;5026516;28;20053;-96
2021/06/16 07:20:33;;;;;;;10.77;1.98;;;17.40;98.30;;;;;;5710672;23;20282;-96
2021/06/16 07:23:00;;;;;;;9.95;2.22;;;17.50;98.10;;;;;;5030208;28;20033;-96
2021/06/16 07:28:06;;;;;;;6.03;2.13;;;17.60;97.10;;;;;;5094875;23;20053;-95
2021/06/16 07:30:32;;;;;;;5.45;1.65;;;17.60;96.70;;;;;;5005688;28;20037;-94
2021/06/16 07:32:57;;;;;;;7.85;2.45;;;17.70;96.40;;;;;;4994066;28;20026;-94
2021/06/16 07:35:23;;;;;;;10.77;2.03;;;17.80;96.00;;;;;;4986147;28;20377;-95
2021/06/16 07:37:50;;;;;;;11.18;3.10;;;17.80;95.40;;;;;;4987730;28;20042;-94
2021/06/16 07:40:18;;;;;;;7.68;2.65;;;17.80;95.30;;;;;;5000637;28;20050;-94
2021/06/16 07:42:44;;;;;;;8.45;2.22;;;17.90;95.30;;;;;;4976254;28;20030;-95
2021/06/16 07:45:13;;;;;;;7.75;2.65;;;18.00;95.10;;;;;;4988165;28;20038;-95
2021/06/16 08:03:28;;;;;;;6.97;2.20;;;18.60;93.50;;;;;;4980485;28;20054;-93
2021/06/16 08:05:55;;;;;;;6.63;2.45;;;18.70;93.40;;;;;;4981664;28;20027;-92
2021/06/16 08:08:23;;;;;;;11.48;2.42;;;18.90;93.20;;;;;;4953861;28;20028;-93
2021/06/16 08:10:50;;;;;;;8.82;2.30;;;19.00;93.00;;;;;;4948002;28;20053;-92
2021/06/16 08:13:18;;;;;;;9.35;2.80;;;19.20;92.70;;;;;;4964281;28;20109;-93
2021/06/16 08:15:43;;;;;;;7.72;2.53;;;19.40;91.80;;;;;;4981937;28;20030;-94
2021/06/16 08:18:09;;;;;;;7.20;2.00;;;19.50;90.70;;;;;;4981997;28;20070;-95
2021/06/16 08:20:36;;;;;;;10.73;2.38;;;19.50;90.10;;;;;;4965022;28;20040;-94
2021/06/16 08:23:07;;;;;;;5.60;2.03;;;19.70;88.60;;;;;;4981838;28;20121;-93
2021/06/16 08:25:38;;;;;;;10.68;2.65;;;19.70;87.70;;;;;;4981810;28;20015;-93
2021/06/16 08:28:05;;;;;;;8.30;2.42;;;19.90;86.80;;;;;;4964667;28;20118;-94
2021/06/16 08:30:31;;;;;;;8.57;2.33;;;20.00;86.20;;;;;;4982276;28;20034;-96
2021/06/16 08:33:01;;;;;;;7.93;2.00;;;20.10;85.30;;;;;;4979131;28;20030;-96
2021/06/16 08:35:27;;;;;;;6.03;2.38;;;20.30;84.40;;;;;;5001542;28;20062;-94
2021/06/16 08:37:56;;;;;;;8.30;1.80;;;20.40;83.50;;;;;;4983873;28;20033;-94
2021/06/16 08:40:22;;;;;;;9.77;2.20;;;20.60;82.00;;;;;;4984469;28;20062;-95
2021/06/16 08:42:49;;;;;;;5.25;1.83;;;20.70;79.60;;;;;;5000868;28;20034;-94
2021/06/16 08:45:17;;;;;;;9.20;2.30;;;20.70;78.50;;;;;;4999929;28;20023;-95
2021/06/16 08:47:50;;;;;;;8.15;1.90;;;20.80;77.20;;;;;;4983919;28;20387;-96
2021/06/16 08:50:17;;;;;;;9.55;2.47;;;21.00;76.50;;;;;;5002000;28;20034;-93
2021/06/16 08:52:47;;;;;;;6.35;1.92;;;21.00;75.40;;;;;;4984430;28;20030;-95
2021/06/16 08:55:19;;;;;;;6.55;1.88;;;21.10;74.50;;;;;;5007789;28;20006;-94
2021/06/16 08:57:45;;;;;;;6.32;2.20;;;21.20;73.40;;;;;;4987143;28;20077;-93
2021/06/16 09:00:13;;;;;;;6.65;1.75;;;21.30;71.90;;;;;;4983527;28;20495;-94
2021/06/16 09:02:39;;;;;;;5.30;1.95;;;21.40;71.30;;;;;;4983313;28;20488;-94
2021/06/16 09:05:07;;;;;;;8.23;1.65;;;21.50;70.80;;;;;;4967462;28;20041;-94
2021/06/16 09:07:37;;;;;;;7.13;2.47;;;21.70;70.30;;;;;;4984309;28;20495;-93
2021/06/16 09:10:10;;;;;;;6.13;1.50;;;21.80;69.90;;;;;;4985149;28;20037;-94
2021/06/16 09:12:42;;;;;;;7.78;1.70;;;22.00;68.50;;;;;;4984110;28;20023;-96
2021/06/16 09:15:16;;;;;;;8.98;1.83;;;22.10;65.40;;;;;;4983084;28;20037;-94
2021/06/16 09:18:14;;;;;;;4.80;1.60;;;22.10;63.30;;;;;;5000707;28;20022;-93
2021/06/16 09:20:46;;;;;;;7.32;1.65;;;22.20;62.60;;;;;;5000404;28;20038;-94
2021/06/16 09:23:16;;;;;;;7.97;1.90;;;22.20;62.30;;;;;;4999687;28;20096;-94
2021/06/16 09:25:44;;;;;;;5.47;1.73;;;22.40;62.10;;;;;;4999913;28;20026;-95
2021/06/16 09:28:12;;;;;;;13.13;2.00;;;22.40;61.60;;;;;;4982540;28;20034;-96
2021/06/16 09:30:42;;;;;;;10.48;2.28;;;22.50;62.30;;;;;;4982858;28;20085;-94
2021/06/16 09:33:16;;;;;;;11.10;2.55;;;22.70;62.60;;;;;;4967638;28;20034;-94
2021/06/16 09:35:45;;;;;;;8.27;1.90;;;22.80;62.50;;;;;;4980510;28;20099;-95
2021/06/16 09:38:32;;;;;;;6.60;1.70;;;22.90;62.20;;;;;;5000166;28;20027;-94
2021/06/16 09:41:01;;;;;;;10.93;1.80;;;23.10;62.20;;;;;;4982959;28;20038;-93
2021/06/16 09:43:30;;;;;;;7.68;1.95;;;23.30;61.30;;;;;;4983449;28;20030;-95
2021/06/16 09:46:04;;;;;;;3.97;1.60;;;23.50;60.70;;;;;;4966710;28;20030;-95
2021/06/16 09:48:38;;;;;;;8.32;1.70;;;23.70;60.10;;;;;;4984357;28;20043;-93
2021/06/16 09:51:25;;;;;;;3.45;1.50;;;23.70;59.30;;;;;;4999195;28;20057;-94
2021/06/16 09:54:13;;;;;;;6.18;1.55;;;23.80;59.00;;;;;;4982706;28;20037;-92
2021/06/16 09:56:46;;;;;;;6.15;1.83;;;24.00;58.60;;;;;;4981108;28;20038;-93
2021/06/16 09:59:34;;;;;;;5.15;1.60;;;24.10;57.40;;;;;;4997038;28;20034;-93
2021/06/16 10:02:02;;;;;;;6.60;1.70;;;24.10;56.80;;;;;;4981243;28;20042;-94
2021/06/16 10:04:43;;;;;;;3.70;1.40;;;24.30;56.30;;;;;;4983331;28;20030;-92
2021/06/16 10:07:36;;;;;;;4.78;1.20;;;24.40;55.00;;;;;;4967497;28;20041;-93
2021/06/16 10:10:08;;;;;;;2.30;1.00;;;24.40;52.70;;;;;;4980413;28;20558;-93
2021/06/16 10:12:38;;;;;;;2.00;1.15;;;24.40;51.70;;;;;;4988767;28;20023;-95
2021/06/16 10:15:11;;;;;;;6.18;1.20;;;24.50;51.20;;;;;;4990759;28;20034;-94
2021/06/16 10:17:37;;;;;;;4.55;1.15;;;24.50;49.60;;;;;;4986948;28;20464;-94
2021/06/16 10:20:07;;;;;;;3.08;0.90;;;24.70;49.90;;;;;;4985418;28;20041;-95
2021/06/16 10:22:34;;;;;;;2.22;1.23;;;24.80;49.00;;;;;;4982983;28;20090;-94
2021/06/16 10:25:00;;;;;;;2.90;1.30;;;24.70;47.80;;;;;;4982285;28;20038;-96
2021/06/16 10:27:33;;;;;;;2.47;1.05;;;24.80;47.20;;;;;;4981432;28;20026;-94
2021/06/16 10:30:07;;;;;;;2.70;1.05;;;24.90;47.20;;;;;;4980340;28;20488;-94
2021/06/16 10:32:44;;;;;;;2.75;0.80;;;25.00;47.10;;;;;;4983780;28;20046;-95
2021/06/16 10:35:24;;;;;;;4.10;0.80;;;25.20;47.00;;;;;;5001569;28;20026;-94
2021/06/16 10:37:49;;;;;;;2.17;1.02;;;25.30;46.70;;;;;;5002174;28;20101;-95
2021/06/16 10:40:30;;;;;;;5.80;0.98;;;25.50;46.40;;;;;;4986003;28;20096;-94
2021/06/16 10:43:02;;;;;;;5.50;1.27;;;25.60;46.30;;;;;;4985477;28;20038;-95
2021/06/16 10:45:46;;;;;;;7.70;0.80;;;25.70;46.10;;;;;;5002217;28;20026;-94
2021/06/16 10:48:15;;;;;;;5.35;0.93;;;25.90;46.40;;;;;;5002648;28;20031;-95
2021/06/16 10:50:47;;;;;;;;;;;26.20;45.50;;;;;;5001226;28;20026;-94
2021/06/16 10:53:18;;;;;;;1.45;0.70;;;26.30;45.00;;;;;;5000804;28;19906;-96
2021/06/16 10:55:56;;;;;;;4.05;0.90;;;26.30;44.50;;;;;;5000649;28;20548;-94
2021/06/16 10:58:27;;;;;;;2.92;0.93;;;26.30;44.60;;;;;;5000457;28;20058;-95
2021/06/16 11:01:12;;;;;;;;;;;26.30;44.10;;;;;;4983569;28;20073;-95
2021/06/16 11:03:50;;;;;;;4.60;1.00;;;26.30;44.60;;;;;;5000400;28;20008;-94
2021/06/16 11:06:36;;;;;;;2.90;1.10;;;26.50;44.50;;;;;;4982181;28;20026;-94
2021/06/16 11:09:14;;;;;;;4.13;0.88;;;26.70;44.50;;;;;;4982406;28;20057;-95
2021/06/16 11:12:01;;;;;;;5.30;1.08;;;26.80;44.30;;;;;;4981264;28;20026;-94
2021/06/16 11:14:47;;;;;;;4.55;0.85;;;26.80;43.20;;;;;;4999442;28;20019;-95
2021/06/16 11:17:39;;;;;;;3.85;0.90;;;26.70;42.40;;;;;;4999483;28;20503;-94
2021/06/16 11:20:19;;;;;;;1.55;0.73;;;26.80;42.70;;;;;;4987045;28;20045;-94
2021/06/16 11:22:54;;;;;;;5.47;0.90;;;27.00;42.50;;;;;;4977619;28;20034;-94
2021/06/16 11:25:38;;;;;;;3.38;0.70;;;27.10;42.60;;;;;;4983655;28;20031;-94
2021/06/16 11:28:09;;;;;;;1.85;0.80;;;27.30;42.70;;;;;;5002033;28;20034;-94
2021/06/16 11:31:04;;;;;;;3.22;1.00;;;27.50;42.70;;;;;;4993028;28;20038;-93
2021/06/16 11:33:35;;;;;;;4.40;1.35;;;27.70;42.30;;;;;;4987383;28;20038;-95
2021/06/16 11:36:08;;;;;;;2.10;0.70;;;27.70;43.10;;;;;;5002012;28;20037;-94
2021/06/16 11:38:53;;;;;;;6.40;0.82;;;27.70;43.10;;;;;;5001573;28;20420;-95
2021/06/16 11:41:24;;;;;;;4.10;0.90;;;27.70;43.50;;;;;;4967922;28;20058;-95
2021/06/16 11:44:09;;;;;;;3.55;0.90;;;27.70;43.90;;;;;;4983374;28;20057;-96
2021/06/16 11:46:48;;;;;;;4.80;0.90;;;27.80;44.50;;;;;;4988821;28;20094;-95
2021/06/16 11:49:16;;;;;;;2.20;0.93;;;27.90;45.00;;;;;;4986043;28;20129;-93
2021/06/16 11:51:52;;;;;;;1.30;0.88;;;27.90;45.00;;;;;;5004603;28;20102;-94
2021/06/16 11:54:19;;;;;;;2.05;1.00;;;27.90;45.30;;;;;;4983801;28;20022;-95
2021/06/16 11:56:58;;;;;;;1.83;1.10;;;28.00;46.00;;;;;;5001056;28;20037;-94
2021/06/16 11:59:36;;;;;;;3.28;1.10;;;28.20;45.80;;;;;;4981709;28;20057;-94
2021/06/16 12:02:06;;;;;;;3.90;1.00;;;28.40;45.80;;;;;;4980874;28;20046;-94
2021/06/16 12:05:06;;;;;;;2.97;0.88;;;28.40;45.70;;;;;;4982344;28;20022;-95
2021/06/16 12:07:40;;;;;;;4.13;1.03;;;28.50;46.00;;;;;;4983471;28;20031;-95
2021/06/16 12:10:14;;;;;;;4.57;1.30;;;28.40;46.10;;;;;;4980614;28;20274;-96
2021/06/16 12:12:50;;;;;;;3.75;1.02;;;28.30;46.40;;;;;;4980479;28;20519;-96
2021/06/16 12:15:19;;;;;;;3.80;0.98;;;28.30;46.30;;;;;;4966074;28;20031;-95
2021/06/16 12:18:04;;;;;;;1.75;0.47;;;28.30;46.80;;;;;;4985212;28;20029;-96
2021/06/16 12:20:51;;;;;;;4.22;1.20;;;28.50;47.00;;;;;;4963918;28;20046;-94
2021/06/16 12:23:35;;;;;;;3.03;1.00;;;28.60;47.00;;;;;;4945675;28;20081;-93
2021/06/16 12:26:24;;;;;;;2.67;1.02;;;28.60;46.30;;;;;;4960007;28;20125;-93
2021/06/16 12:28:53;;;;;;;7.72;1.30;;;28.60;46.80;;;;;;4980004;28;20064;-93
2021/06/16 12:31:30;;;;;;;3.65;1.60;;;28.60;47.20;;;;;;4997459;28;20100;-94
2021/06/16 12:36:34;;;;;;;2.50;1.05;;;28.50;47.60;;;;;;5000097;28;20464;-93
2021/06/16 12:39:14;;;;;;;3.20;1.08;;;28.60;47.90;;;;;;4982873;28;20590;-94
2021/06/16 12:41:48;;;;;;;4.97;1.30;;;28.70;48.20;;;;;;4983163;28;20034;-94
2021/06/16 12:44:43;;;;;;;1.60;1.10;;;28.90;48.30;;;;;;5000637;28;20092;-94
2021/06/16 12:47:14;;;;;;;5.55;1.20;;;28.80;48.80;;;;;;4989101;28;20026;-95
2021/06/16 12:49:51;;;;;;;4.93;0.95;;;28.90;49.70;;;;;;4990711;28;20022;-95
2021/06/16 12:52:31;;;;;;;5.50;1.17;;;29.00;49.50;;;;;;4998193;28;20506;-94
2021/06/16 12:55:12;;;;;;;2.50;1.10;;;29.00;49.60;;;;;;4998088;28;20030;-93
2021/06/16 12:57:48;;;;;;;3.53;1.20;;;29.10;49.00;;;;;;5001255;28;20089;-94
2021/06/16 13:00:33;;;;;;;3.08;0.98;;;29.20;49.00;;;;;;4982569;28;20039;-95
2021/06/16 13:03:23;;;;;;;5.22;1.33;;;29.20;48.70;;;;;;4986588;28;20214;-94
2021/06/16 13:05:51;;;;;;;1.90;0.75;;;29.20;48.40;;;;;;4981299;28;20033;-93
2021/06/16 13:08:36;;;;;;;2.30;0.90;;;28.90;48.40;;;;;;4982912;28;20038;-96
2021/06/16 13:11:19;;;;;;;2.88;0.80;;;28.70;48.80;;;;;;4982553;28;20022;-95
2021/06/16 13:13:46;;;;;;;2.72;0.98;;;28.80;49.30;;;;;;4985108;28;20029;-95
2021/06/16 13:16:24;;;;;;;1.73;1.00;;;28.70;49.10;;;;;;4985320;28;20105;-93
2021/06/16 13:18:50;;;;;;;2.75;0.88;;;28.50;49.50;;;;;;4986399;28;20030;-95
2021/06/16 13:21:16;;;;;;;2.33;1.00;;;28.30;49.90;;;;;;4988516;28;20034;-95
2021/06/16 13:23:53;;;;;;;2.75;0.80;;;28.40;50.30;;;;;;4985505;28;20090;-94
2021/06/16 13:26:20;;;;;;;3.40;0.95;;;28.60;50.40;;;;;;4984076;28;20040;-95
2021/06/16 13:29:06;;;;;;;1.92;0.90;;;28.60;50.40;;;;;;4982938;28;20026;-94
2021/06/16 13:31:33;;;;;;;2.60;1.27;;;28.70;50.70;;;;;;4969301;28;20050;-94
2021/06/16 13:34:13;;;;;;;2.38;0.90;;;28.60;50.70;;;;;;4967645;28;20050;-94
2021/06/16 13:36:40;;;;;;;5.63;0.80;;;28.90;51.00;;;;;;4983258;28;20037;-93
2021/06/16 13:39:07;;;;;;;5.90;1.13;;;29.10;50.80;;;;;;4982686;28;20022;-94
2021/06/16 13:41:34;;;;;;;3.28;1.20;;;29.20;50.50;;;;;;4982488;28;20042;-94
2021/06/16 13:44:00;;;;;;;1.90;0.80;;;29.30;50.40;;;;;;4982298;28;20027;-93
2021/06/16 13:46:26;;;;;;;1.80;0.80;;;29.50;50.50;;;;;;4981674;28;20037;-94